sensor_id;sensor_type;location;lat;lon;timestamp;P1;durP1;ratioP1;P2;durP2;ratioP2
7773;SDS011;3931;42.260;23.116;2023-03-31T00:00:43;15.53;;;6.60;;
7773;SDS011;3931;42.260;23.116;2023-03-31T00:03:09;11.20;;;4.70;;
7773;SDS011;3931;42.260;23.116;2023-03-31T00:05:35;8.70;;;3.17;;
7773;SDS011;3931;42.260;23.116;2023-03-31T00:08:01;5.37;;;2.80;;
7773;SDS011;3931;42.260;23.116;2023-03-31T00:10:27;5.00;;;2.80;;
7773;SDS011;3931;42.260;23.116;2023-03-31T00:12:53;5.67;;;3.00;;
7773;SDS011;3931;42.260;23.116;2023-03-31T00:15:19;7.67;;;3.00;;
7773;SDS011;3931;42.260;23.116;2023-03-31T00:17:45;3.23;;;2.60;;
7773;SDS011;3931;42.260;23.116;2023-03-31T00:20:11;5.30;;;2.43;;
7773;SDS011;3931;42.260;23.116;2023-03-31T00:22:38;8.03;;;3.20;;
7773;SDS011;3931;42.260;23.116;2023-03-31T00:25:07;14.87;;;4.03;;
7773;SDS011;3931;42.260;23.116;2023-03-31T00:27:33;11.07;;;3.70;;
7773;SDS011;3931;42.260;23.116;2023-03-31T00:29:58;4.23;;;2.40;;
7773;SDS011;3931;42.260;23.116;2023-03-31T00:32:24;5.30;;;3.00;;
7773;SDS011;3931;42.260;23.116;2023-03-31T00:34:51;5.27;;;3.00;;
7773;SDS011;3931;42.260;23.116;2023-03-31T00:37:16;5.70;;;2.80;;
7773;SDS011;3931;42.260;23.116;2023-03-31T00:39:42;5.60;;;2.47;;
7773;SDS011;3931;42.260;23.116;2023-03-31T00:42:09;5.13;;;2.50;;
7773;SDS011;3931;42.260;23.116;2023-03-31T00:44:37;6.60;;;2.33;;
7773;SDS011;3931;42.260;23.116;2023-03-31T00:47:05;5.90;;;2.40;;
7773;SDS011;3931;42.260;23.116;2023-03-31T00:49:33;4.03;;;2.30;;
7773;SDS011;3931;42.260;23.116;2023-03-31T00:52:01;4.73;;;2.70;;
7773;SDS011;3931;42.260;23.116;2023-03-31T00:54:29;4.40;;;2.40;;
7773;SDS011;3931;42.260;23.116;2023-03-31T00:56:56;8.03;;;2.80;;
7773;SDS011;3931;42.260;23.116;2023-03-31T00:59:23;2.73;;;2.40;;
7773;SDS011;3931;42.260;23.116;2023-03-31T01:01:51;3.93;;;2.40;;
7773;SDS011;3931;42.260;23.116;2023-03-31T01:04:18;4.50;;;2.20;;
7773;SDS011;3931;42.260;23.116;2023-03-31T01:06:49;3.40;;;2.20;;
7773;SDS011;3931;42.260;23.116;2023-03-31T01:09:16;4.73;;;2.47;;
7773;SDS011;3931;42.260;23.116;2023-03-31T01:11:42;8.43;;;2.33;;
7773;SDS011;3931;42.260;23.116;2023-03-31T01:14:08;7.10;;;2.37;;
7773;SDS011;3931;42.260;23.116;2023-03-31T01:16:34;3.23;;;2.03;;
7773;SDS011;3931;42.260;23.116;2023-03-31T01:19:03;4.17;;;2.30;;
7773;SDS011;3931;42.260;23.116;2023-03-31T01:21:38;4.87;;;1.90;;
7773;SDS011;3931;42.260;23.116;2023-03-31T01:27:10;3.33;;;1.77;;
7773;SDS011;3931;42.260;23.116;2023-03-31T01:30:04;4.63;;;2.10;;
7773;SDS011;3931;42.260;23.116;2023-03-31T01:38:11;5.40;;;2.60;;
7773;SDS011;3931;42.260;23.116;2023-03-31T01:43:35;4.00;;;2.40;;
7773;SDS011;3931;42.260;23.116;2023-03-31T01:46:07;6.93;;;1.90;;
7773;SDS011;3931;42.260;23.116;2023-03-31T01:48:37;7.17;;;2.30;;
7773;SDS011;3931;42.260;23.116;2023-03-31T01:51:06;3.83;;;2.23;;
7773;SDS011;3931;42.260;23.116;2023-03-31T01:53:35;9.60;;;2.53;;
7773;SDS011;3931;42.260;23.116;2023-03-31T01:56:06;4.83;;;2.17;;
7773;SDS011;3931;42.260;23.116;2023-03-31T01:58:34;6.20;;;2.10;;
7773;SDS011;3931;42.260;23.116;2023-03-31T02:01:01;9.73;;;2.57;;
7773;SDS011;3931;42.260;23.116;2023-03-31T02:03:31;8.50;;;2.50;;
7773;SDS011;3931;42.260;23.116;2023-03-31T02:05:59;3.80;;;2.40;;
7773;SDS011;3931;42.260;23.116;2023-03-31T02:08:28;7.53;;;2.07;;
7773;SDS011;3931;42.260;23.116;2023-03-31T02:10:55;3.47;;;2.07;;
7773;SDS011;3931;42.260;23.116;2023-03-31T02:13:21;5.63;;;2.00;;
7773;SDS011;3931;42.260;23.116;2023-03-31T02:15:49;3.77;;;2.43;;
7773;SDS011;3931;42.260;23.116;2023-03-31T02:18:18;5.70;;;2.43;;
7773;SDS011;3931;42.260;23.116;2023-03-31T02:20:45;3.60;;;2.20;;
7773;SDS011;3931;42.260;23.116;2023-03-31T02:23:13;7.73;;;2.43;;
7773;SDS011;3931;42.260;23.116;2023-03-31T02:25:40;3.53;;;2.40;;
7773;SDS011;3931;42.260;23.116;2023-03-31T02:28:11;3.87;;;2.33;;
7773;SDS011;3931;42.260;23.116;2023-03-31T02:30:40;2.90;;;2.07;;
7773;SDS011;3931;42.260;23.116;2023-03-31T02:33:09;2.50;;;2.10;;
7773;SDS011;3931;42.260;23.116;2023-03-31T02:35:36;5.00;;;2.50;;
7773;SDS011;3931;42.260;23.116;2023-03-31T02:38:01;5.17;;;2.60;;
7773;SDS011;3931;42.260;23.116;2023-03-31T02:40:30;5.10;;;2.80;;
7773;SDS011;3931;42.260;23.116;2023-03-31T02:42:56;2.83;;;2.20;;
7773;SDS011;3931;42.260;23.116;2023-03-31T02:45:42;6.20;;;2.83;;
7773;SDS011;3931;42.260;23.116;2023-03-31T02:48:08;6.70;;;4.27;;
7773;SDS011;3931;42.260;23.116;2023-03-31T02:50:38;4.87;;;3.20;;
7773;SDS011;3931;42.260;23.116;2023-03-31T02:53:08;5.63;;;3.87;;
7773;SDS011;3931;42.260;23.116;2023-03-31T02:55:45;4.67;;;2.60;;
7773;SDS011;3931;42.260;23.116;2023-03-31T02:58:19;3.63;;;2.70;;
7773;SDS011;3931;42.260;23.116;2023-03-31T03:00:54;6.63;;;3.07;;
7773;SDS011;3931;42.260;23.116;2023-03-31T03:03:28;14.83;;;8.07;;
7773;SDS011;3931;42.260;23.116;2023-03-31T03:05:58;11.83;;;5.23;;
7773;SDS011;3931;42.260;23.116;2023-03-31T03:08:27;9.93;;;5.13;;
7773;SDS011;3931;42.260;23.116;2023-03-31T03:11:00;7.50;;;4.50;;
7773;SDS011;3931;42.260;23.116;2023-03-31T03:13:32;8.07;;;4.93;;
7773;SDS011;3931;42.260;23.116;2023-03-31T03:15:59;7.00;;;4.67;;
7773;SDS011;3931;42.260;23.116;2023-03-31T03:18:28;6.20;;;3.93;;
7773;SDS011;3931;42.260;23.116;2023-03-31T03:20:54;7.70;;;4.57;;
7773;SDS011;3931;42.260;23.116;2023-03-31T03:23:20;7.23;;;4.47;;
7773;SDS011;3931;42.260;23.116;2023-03-31T03:25:46;20.33;;;4.73;;
7773;SDS011;3931;42.260;23.116;2023-03-31T03:28:12;7.93;;;4.20;;
7773;SDS011;3931;42.260;23.116;2023-03-31T03:30:38;5.37;;;3.80;;
7773;SDS011;3931;42.260;23.116;2023-03-31T03:33:04;10.00;;;4.20;;
7773;SDS011;3931;42.260;23.116;2023-03-31T03:35:30;6.53;;;2.43;;
7773;SDS011;3931;42.260;23.116;2023-03-31T03:37:56;8.00;;;4.37;;
7773;SDS011;3931;42.260;23.116;2023-03-31T03:40:23;10.00;;;4.93;;
7773;SDS011;3931;42.260;23.116;2023-03-31T03:42:48;7.30;;;3.93;;
7773;SDS011;3931;42.260;23.116;2023-03-31T03:45:14;7.23;;;4.50;;
7773;SDS011;3931;42.260;23.116;2023-03-31T03:47:40;8.93;;;3.87;;
7773;SDS011;3931;42.260;23.116;2023-03-31T03:50:06;9.17;;;4.43;;
7773;SDS011;3931;42.260;23.116;2023-03-31T03:52:32;12.53;;;5.50;;
7773;SDS011;3931;42.260;23.116;2023-03-31T03:54:58;9.47;;;4.00;;
7773;SDS011;3931;42.260;23.116;2023-03-31T03:57:26;4.70;;;2.90;;
7773;SDS011;3931;42.260;23.116;2023-03-31T03:59:52;7.30;;;3.70;;
7773;SDS011;3931;42.260;23.116;2023-03-31T04:02:17;9.37;;;4.07;;
7773;SDS011;3931;42.260;23.116;2023-03-31T04:04:43;11.50;;;4.70;;
7773;SDS011;3931;42.260;23.116;2023-03-31T04:07:09;3.57;;;2.70;;
7773;SDS011;3931;42.260;23.116;2023-03-31T04:09:35;5.33;;;2.60;;
7773;SDS011;3931;42.260;23.116;2023-03-31T04:12:01;7.27;;;3.13;;
7773;SDS011;3931;42.260;23.116;2023-03-31T04:14:27;10.60;;;5.40;;
7773;SDS011;3931;42.260;23.116;2023-03-31T04:16:53;7.40;;;4.50;;
7773;SDS011;3931;42.260;23.116;2023-03-31T04:19:20;13.97;;;5.70;;
7773;SDS011;3931;42.260;23.116;2023-03-31T04:21:49;8.50;;;3.87;;
7773;SDS011;3931;42.260;23.116;2023-03-31T04:24:22;8.90;;;3.40;;
7773;SDS011;3931;42.260;23.116;2023-03-31T04:26:54;10.83;;;3.50;;
7773;SDS011;3931;42.260;23.116;2023-03-31T04:29:20;7.57;;;4.87;;
7773;SDS011;3931;42.260;23.116;2023-03-31T04:31:51;5.60;;;3.60;;
7773;SDS011;3931;42.260;23.116;2023-03-31T04:34:18;9.70;;;4.87;;
7773;SDS011;3931;42.260;23.116;2023-03-31T04:36:51;10.47;;;5.47;;
7773;SDS011;3931;42.260;23.116;2023-03-31T04:39:20;12.30;;;6.67;;
7773;SDS011;3931;42.260;23.116;2023-03-31T04:41:50;6.53;;;4.07;;
7773;SDS011;3931;42.260;23.116;2023-03-31T04:44:16;11.80;;;4.70;;
7773;SDS011;3931;42.260;23.116;2023-03-31T04:46:42;7.60;;;3.80;;
7773;SDS011;3931;42.260;23.116;2023-03-31T04:49:08;9.17;;;3.80;;
7773;SDS011;3931;42.260;23.116;2023-03-31T04:51:34;10.87;;;5.30;;
7773;SDS011;3931;42.260;23.116;2023-03-31T04:54:00;7.53;;;5.10;;
7773;SDS011;3931;42.260;23.116;2023-03-31T04:56:25;13.10;;;7.03;;
7773;SDS011;3931;42.260;23.116;2023-03-31T04:58:51;7.60;;;5.70;;
7773;SDS011;3931;42.260;23.116;2023-03-31T05:01:17;11.10;;;6.57;;
7773;SDS011;3931;42.260;23.116;2023-03-31T05:03:43;36.27;;;18.40;;
7773;SDS011;3931;42.260;23.116;2023-03-31T05:06:09;30.73;;;16.50;;
7773;SDS011;3931;42.260;23.116;2023-03-31T05:08:35;13.57;;;8.10;;
7773;SDS011;3931;42.260;23.116;2023-03-31T05:11:01;23.93;;;9.50;;
7773;SDS011;3931;42.260;23.116;2023-03-31T05:13:27;8.47;;;4.07;;
7773;SDS011;3931;42.260;23.116;2023-03-31T05:15:53;10.40;;;5.73;;
7773;SDS011;3931;42.260;23.116;2023-03-31T05:18:19;13.67;;;6.80;;
7773;SDS011;3931;42.260;23.116;2023-03-31T05:20:45;13.87;;;6.70;;
7773;SDS011;3931;42.260;23.116;2023-03-31T05:23:11;18.33;;;7.23;;
7773;SDS011;3931;42.260;23.116;2023-03-31T05:25:37;13.30;;;7.63;;
7773;SDS011;3931;42.260;23.116;2023-03-31T05:28:03;13.87;;;7.57;;
7773;SDS011;3931;42.260;23.116;2023-03-31T05:30:29;15.60;;;10.73;;
7773;SDS011;3931;42.260;23.116;2023-03-31T05:32:54;19.63;;;9.90;;
7773;SDS011;3931;42.260;23.116;2023-03-31T05:35:21;12.80;;;7.97;;
7773;SDS011;3931;42.260;23.116;2023-03-31T05:37:46;17.07;;;9.60;;
7773;SDS011;3931;42.260;23.116;2023-03-31T05:40:13;21.00;;;9.97;;
7773;SDS011;3931;42.260;23.116;2023-03-31T05:42:39;23.70;;;9.17;;
7773;SDS011;3931;42.260;23.116;2023-03-31T05:45:06;13.00;;;8.10;;
7773;SDS011;3931;42.260;23.116;2023-03-31T05:47:32;22.80;;;9.37;;
7773;SDS011;3931;42.260;23.116;2023-03-31T05:49:58;13.50;;;8.10;;
7773;SDS011;3931;42.260;23.116;2023-03-31T05:52:24;11.80;;;8.30;;
7773;SDS011;3931;42.260;23.116;2023-03-31T05:54:49;17.20;;;7.60;;
7773;SDS011;3931;42.260;23.116;2023-03-31T05:57:16;12.30;;;7.20;;
7773;SDS011;3931;42.260;23.116;2023-03-31T05:59:41;16.33;;;8.80;;
7773;SDS011;3931;42.260;23.116;2023-03-31T06:02:09;18.43;;;7.97;;
7773;SDS011;3931;42.260;23.116;2023-03-31T06:04:36;15.30;;;9.10;;
7773;SDS011;3931;42.260;23.116;2023-03-31T06:07:02;30.77;;;11.33;;
7773;SDS011;3931;42.260;23.116;2023-03-31T06:09:29;20.93;;;9.10;;
7773;SDS011;3931;42.260;23.116;2023-03-31T06:11:55;18.93;;;7.90;;
7773;SDS011;3931;42.260;23.116;2023-03-31T06:14:21;17.83;;;8.53;;
7773;SDS011;3931;42.260;23.116;2023-03-31T06:16:47;13.13;;;8.00;;
7773;SDS011;3931;42.260;23.116;2023-03-31T06:19:13;16.10;;;9.07;;
7773;SDS011;3931;42.260;23.116;2023-03-31T06:21:39;12.03;;;7.10;;
7773;SDS011;3931;42.260;23.116;2023-03-31T06:24:05;18.53;;;8.30;;
7773;SDS011;3931;42.260;23.116;2023-03-31T06:26:31;25.07;;;9.30;;
7773;SDS011;3931;42.260;23.116;2023-03-31T06:28:57;13.80;;;6.90;;
7773;SDS011;3931;42.260;23.116;2023-03-31T06:31:23;17.00;;;7.70;;
7773;SDS011;3931;42.260;23.116;2023-03-31T06:33:49;22.93;;;7.77;;
7773;SDS011;3931;42.260;23.116;2023-03-31T06:36:15;16.13;;;8.23;;
7773;SDS011;3931;42.260;23.116;2023-03-31T06:38:42;15.80;;;8.00;;
7773;SDS011;3931;42.260;23.116;2023-03-31T06:41:08;11.87;;;6.60;;
7773;SDS011;3931;42.260;23.116;2023-03-31T06:43:35;12.20;;;6.83;;
7773;SDS011;3931;42.260;23.116;2023-03-31T06:46:00;16.80;;;6.77;;
7773;SDS011;3931;42.260;23.116;2023-03-31T06:48:27;10.57;;;6.40;;
7773;SDS011;3931;42.260;23.116;2023-03-31T06:50:53;22.03;;;7.50;;
7773;SDS011;3931;42.260;23.116;2023-03-31T06:53:19;41.67;;;7.47;;
7773;SDS011;3931;42.260;23.116;2023-03-31T06:55:46;14.53;;;8.57;;
7773;SDS011;3931;42.260;23.116;2023-03-31T06:58:11;20.07;;;8.60;;
7773;SDS011;3931;42.260;23.116;2023-03-31T07:00:37;35.43;;;8.77;;
7773;SDS011;3931;42.260;23.116;2023-03-31T07:03:03;21.67;;;8.70;;
7773;SDS011;3931;42.260;23.116;2023-03-31T07:05:29;14.70;;;8.20;;
7773;SDS011;3931;42.260;23.116;2023-03-31T07:07:55;27.00;;;8.40;;
7773;SDS011;3931;42.260;23.116;2023-03-31T07:10:21;24.10;;;8.33;;
7773;SDS011;3931;42.260;23.116;2023-03-31T07:12:47;15.93;;;7.40;;
7773;SDS011;3931;42.260;23.116;2023-03-31T07:15:13;21.03;;;8.53;;
7773;SDS011;3931;42.260;23.116;2023-03-31T07:17:39;17.90;;;8.07;;
7773;SDS011;3931;42.260;23.116;2023-03-31T07:20:06;27.67;;;8.90;;
7773;SDS011;3931;42.260;23.116;2023-03-31T07:22:37;59.90;;;11.23;;
7773;SDS011;3931;42.260;23.116;2023-03-31T07:25:03;23.93;;;9.30;;
7773;SDS011;3931;42.260;23.116;2023-03-31T07:27:29;22.50;;;8.80;;
7773;SDS011;3931;42.260;23.116;2023-03-31T07:29:54;20.33;;;8.10;;
7773;SDS011;3931;42.260;23.116;2023-03-31T07:32:20;20.93;;;8.87;;
7773;SDS011;3931;42.260;23.116;2023-03-31T07:34:47;28.47;;;9.40;;
7773;SDS011;3931;42.260;23.116;2023-03-31T07:37:13;18.37;;;7.53;;
7773;SDS011;3931;42.260;23.116;2023-03-31T07:39:39;21.40;;;9.57;;
7773;SDS011;3931;42.260;23.116;2023-03-31T07:42:05;17.60;;;8.63;;
7773;SDS011;3931;42.260;23.116;2023-03-31T07:44:31;36.87;;;8.80;;
7773;SDS011;3931;42.260;23.116;2023-03-31T07:46:57;19.77;;;9.03;;
7773;SDS011;3931;42.260;23.116;2023-03-31T07:49:25;25.67;;;11.60;;
7773;SDS011;3931;42.260;23.116;2023-03-31T07:51:51;19.43;;;10.77;;
7773;SDS011;3931;42.260;23.116;2023-03-31T07:54:16;35.60;;;11.93;;
7773;SDS011;3931;42.260;23.116;2023-03-31T07:56:43;24.20;;;9.43;;
7773;SDS011;3931;42.260;23.116;2023-03-31T07:59:09;35.10;;;11.30;;
7773;SDS011;3931;42.260;23.116;2023-03-31T08:01:34;25.10;;;10.30;;
7773;SDS011;3931;42.260;23.116;2023-03-31T08:04:00;27.33;;;11.07;;
7773;SDS011;3931;42.260;23.116;2023-03-31T08:06:26;16.63;;;8.37;;
7773;SDS011;3931;42.260;23.116;2023-03-31T08:08:53;38.07;;;8.30;;
7773;SDS011;3931;42.260;23.116;2023-03-31T08:11:19;33.40;;;9.40;;
7773;SDS011;3931;42.260;23.116;2023-03-31T08:13:46;22.67;;;6.97;;
7773;SDS011;3931;42.260;23.116;2023-03-31T08:16:11;20.60;;;6.33;;
7773;SDS011;3931;42.260;23.116;2023-03-31T08:18:37;22.93;;;6.83;;
7773;SDS011;3931;42.260;23.116;2023-03-31T08:21:03;20.23;;;6.47;;
7773;SDS011;3931;42.260;23.116;2023-03-31T08:23:29;8.20;;;4.50;;
7773;SDS011;3931;42.260;23.116;2023-03-31T08:26:01;7.87;;;5.03;;
7773;SDS011;3931;42.260;23.116;2023-03-31T08:28:30;20.03;;;5.33;;
7773;SDS011;3931;42.260;23.116;2023-03-31T08:31:01;22.07;;;6.03;;
7773;SDS011;3931;42.260;23.116;2023-03-31T08:33:28;15.00;;;4.00;;
7773;SDS011;3931;42.260;23.116;2023-03-31T08:35:54;13.00;;;4.40;;
7773;SDS011;3931;42.260;23.116;2023-03-31T08:38:20;7.17;;;4.07;;
7773;SDS011;3931;42.260;23.116;2023-03-31T08:40:45;8.37;;;3.40;;
7773;SDS011;3931;42.260;23.116;2023-03-31T08:43:12;11.90;;;3.80;;
7773;SDS011;3931;42.260;23.116;2023-03-31T08:45:41;15.33;;;3.63;;
7773;SDS011;3931;42.260;23.116;2023-03-31T08:48:13;34.57;;;5.43;;
7773;SDS011;3931;42.260;23.116;2023-03-31T08:50:47;10.80;;;4.17;;
7773;SDS011;3931;42.260;23.116;2023-03-31T08:53:16;11.97;;;2.57;;
7773;SDS011;3931;42.260;23.116;2023-03-31T08:55:45;229.53;;;10.10;;
7773;SDS011;3931;42.260;23.116;2023-03-31T08:58:16;74.10;;;4.70;;
7773;SDS011;3931;42.260;23.116;2023-03-31T09:00:44;9.27;;;3.07;;
7773;SDS011;3931;42.260;23.116;2023-03-31T09:03:13;4.77;;;2.60;;
7773;SDS011;3931;42.260;23.116;2023-03-31T09:05:44;8.47;;;2.57;;
7773;SDS011;3931;42.260;23.116;2023-03-31T09:08:12;16.67;;;2.87;;
7773;SDS011;3931;42.260;23.116;2023-03-31T09:10:41;7.43;;;2.60;;
7773;SDS011;3931;42.260;23.116;2023-03-31T09:13:12;6.43;;;2.40;;
7773;SDS011;3931;42.260;23.116;2023-03-31T09:15:43;16.00;;;3.07;;
7773;SDS011;3931;42.260;23.116;2023-03-31T09:18:13;9.90;;;2.23;;
7773;SDS011;3931;42.260;23.116;2023-03-31T09:20:40;10.17;;;3.53;;
7773;SDS011;3931;42.260;23.116;2023-03-31T09:23:11;10.10;;;2.40;;
7773;SDS011;3931;42.260;23.116;2023-03-31T09:25:41;7.73;;;2.23;;
7773;SDS011;3931;42.260;23.116;2023-03-31T09:28:11;11.40;;;3.03;;
7773;SDS011;3931;42.260;23.116;2023-03-31T09:30:38;13.90;;;2.50;;
7773;SDS011;3931;42.260;23.116;2023-03-31T09:33:09;3.33;;;2.23;;
7773;SDS011;3931;42.260;23.116;2023-03-31T09:35:37;11.67;;;3.73;;
7773;SDS011;3931;42.260;23.116;2023-03-31T09:38:02;26.47;;;2.40;;
7773;SDS011;3931;42.260;23.116;2023-03-31T09:40:28;18.70;;;2.50;;
7773;SDS011;3931;42.260;23.116;2023-03-31T09:42:55;5.73;;;1.97;;
7773;SDS011;3931;42.260;23.116;2023-03-31T09:45:21;6.43;;;2.13;;
7773;SDS011;3931;42.260;23.116;2023-03-31T09:47:49;31.83;;;3.00;;
7773;SDS011;3931;42.260;23.116;2023-03-31T09:50:15;7.33;;;2.73;;
7773;SDS011;3931;42.260;23.116;2023-03-31T09:52:43;49.17;;;4.90;;
7773;SDS011;3931;42.260;23.116;2023-03-31T09:55:14;4.80;;;2.30;;
7773;SDS011;3931;42.260;23.116;2023-03-31T09:57:42;8.37;;;2.30;;
7773;SDS011;3931;42.260;23.116;2023-03-31T10:00:13;6.97;;;2.73;;
7773;SDS011;3931;42.260;23.116;2023-03-31T10:02:40;4.10;;;1.90;;
7773;SDS011;3931;42.260;23.116;2023-03-31T10:05:17;10.87;;;3.53;;
7773;SDS011;3931;42.260;23.116;2023-03-31T10:07:44;9.20;;;2.47;;
7773;SDS011;3931;42.260;23.116;2023-03-31T10:10:10;29.17;;;3.37;;
7773;SDS011;3931;42.260;23.116;2023-03-31T10:12:48;7.50;;;2.43;;
7773;SDS011;3931;42.260;23.116;2023-03-31T10:15:17;6.10;;;2.53;;
7773;SDS011;3931;42.260;23.116;2023-03-31T10:17:44;5.63;;;2.27;;
7773;SDS011;3931;42.260;23.116;2023-03-31T10:20:17;15.07;;;2.47;;
7773;SDS011;3931;42.260;23.116;2023-03-31T10:22:44;8.77;;;3.50;;
7773;SDS011;3931;42.260;23.116;2023-03-31T10:25:15;4.90;;;2.30;;
7773;SDS011;3931;42.260;23.116;2023-03-31T10:27:40;5.23;;;2.23;;
7773;SDS011;3931;42.260;23.116;2023-03-31T10:30:08;14.70;;;3.17;;
7773;SDS011;3931;42.260;23.116;2023-03-31T10:32:37;6.87;;;2.00;;
7773;SDS011;3931;42.260;23.116;2023-03-31T10:35:05;7.00;;;4.07;;
7773;SDS011;3931;42.260;23.116;2023-03-31T10:37:31;18.53;;;3.83;;
7773;SDS011;3931;42.260;23.116;2023-03-31T10:40:00;5.60;;;1.80;;
7773;SDS011;3931;42.260;23.116;2023-03-31T10:42:29;7.50;;;2.47;;
7773;SDS011;3931;42.260;23.116;2023-03-31T10:45:08;4.87;;;2.80;;
7773;SDS011;3931;42.260;23.116;2023-03-31T10:47:34;13.83;;;2.20;;
7773;SDS011;3931;42.260;23.116;2023-03-31T10:50:03;14.53;;;3.40;;
7773;SDS011;3931;42.260;23.116;2023-03-31T10:52:29;15.80;;;3.33;;
7773;SDS011;3931;42.260;23.116;2023-03-31T10:55:10;15.10;;;3.27;;
7773;SDS011;3931;42.260;23.116;2023-03-31T10:57:38;7.40;;;2.57;;
7773;SDS011;3931;42.260;23.116;2023-03-31T11:00:10;8.30;;;2.60;;
7773;SDS011;3931;42.260;23.116;2023-03-31T11:05:20;7.53;;;2.33;;
7773;SDS011;3931;42.260;23.116;2023-03-31T11:07:52;3.10;;;2.10;;
7773;SDS011;3931;42.260;23.116;2023-03-31T11:10:23;8.43;;;2.37;;
7773;SDS011;3931;42.260;23.116;2023-03-31T11:12:56;10.53;;;2.50;;
7773;SDS011;3931;42.260;23.116;2023-03-31T11:15:24;8.00;;;2.00;;
7773;SDS011;3931;42.260;23.116;2023-03-31T11:17:58;29.83;;;2.90;;
7773;SDS011;3931;42.260;23.116;2023-03-31T11:20:27;13.83;;;2.60;;
7773;SDS011;3931;42.260;23.116;2023-03-31T11:22:58;4.30;;;2.20;;
7773;SDS011;3931;42.260;23.116;2023-03-31T11:25:29;3.60;;;1.80;;
7773;SDS011;3931;42.260;23.116;2023-03-31T11:28:04;3.43;;;1.90;;
7773;SDS011;3931;42.260;23.116;2023-03-31T11:30:35;7.37;;;2.20;;
7773;SDS011;3931;42.260;23.116;2023-03-31T11:33:05;4.10;;;2.07;;
7773;SDS011;3931;42.260;23.116;2023-03-31T11:35:40;4.33;;;2.13;;
7773;SDS011;3931;42.260;23.116;2023-03-31T11:40:58;7.17;;;1.80;;
7773;SDS011;3931;42.260;23.116;2023-03-31T11:43:26;12.80;;;2.10;;
7773;SDS011;3931;42.260;23.116;2023-03-31T11:45:54;4.40;;;2.00;;
7773;SDS011;3931;42.260;23.116;2023-03-31T11:48:25;3.43;;;1.77;;
7773;SDS011;3931;42.260;23.116;2023-03-31T11:50:53;25.13;;;3.10;;
7773;SDS011;3931;42.260;23.116;2023-03-31T11:53:22;7.73;;;2.40;;
7773;SDS011;3931;42.260;23.116;2023-03-31T11:55:50;16.37;;;2.73;;
7773;SDS011;3931;42.260;23.116;2023-03-31T11:58:19;6.40;;;2.33;;
7773;SDS011;3931;42.260;23.116;2023-03-31T12:00:47;11.87;;;2.30;;
7773;SDS011;3931;42.260;23.116;2023-03-31T12:03:18;6.03;;;2.00;;
7773;SDS011;3931;42.260;23.116;2023-03-31T12:05:46;13.23;;;2.17;;
7773;SDS011;3931;42.260;23.116;2023-03-31T12:08:14;6.10;;;1.80;;
7773;SDS011;3931;42.260;23.116;2023-03-31T12:10:42;14.57;;;3.00;;
7773;SDS011;3931;42.260;23.116;2023-03-31T12:13:16;14.03;;;2.60;;
7773;SDS011;3931;42.260;23.116;2023-03-31T12:15:50;12.97;;;2.00;;
7773;SDS011;3931;42.260;23.116;2023-03-31T12:18:17;74.37;;;4.53;;
7773;SDS011;3931;42.260;23.116;2023-03-31T12:20:46;4.80;;;2.40;;
7773;SDS011;3931;42.260;23.116;2023-03-31T12:23:16;3.80;;;1.97;;
7773;SDS011;3931;42.260;23.116;2023-03-31T12:25:44;8.93;;;1.80;;
7773;SDS011;3931;42.260;23.116;2023-03-31T12:28:12;3.60;;;1.87;;
7773;SDS011;3931;42.260;23.116;2023-03-31T12:30:38;5.77;;;2.10;;
7773;SDS011;3931;42.260;23.116;2023-03-31T12:33:10;9.63;;;2.83;;
7773;SDS011;3931;42.260;23.116;2023-03-31T12:35:40;4.53;;;1.70;;
7773;SDS011;3931;42.260;23.116;2023-03-31T12:38:15;12.40;;;2.67;;
7773;SDS011;3931;42.260;23.116;2023-03-31T12:40:48;6.50;;;1.80;;
7773;SDS011;3931;42.260;23.116;2023-03-31T12:43:18;4.93;;;1.70;;
7773;SDS011;3931;42.260;23.116;2023-03-31T12:45:48;36.77;;;3.30;;
7773;SDS011;3931;42.260;23.116;2023-03-31T12:48:32;2.60;;;1.53;;
7773;SDS011;3931;42.260;23.116;2023-03-31T12:51:06;39.67;;;4.30;;
7773;SDS011;3931;42.260;23.116;2023-03-31T12:53:38;7.97;;;2.03;;
7773;SDS011;3931;42.260;23.116;2023-03-31T12:56:09;9.50;;;1.93;;
7773;SDS011;3931;42.260;23.116;2023-03-31T12:58:39;11.20;;;2.23;;
7773;SDS011;3931;42.260;23.116;2023-03-31T13:01:06;11.17;;;2.17;;
7773;SDS011;3931;42.260;23.116;2023-03-31T13:03:39;18.40;;;2.53;;
7773;SDS011;3931;42.260;23.116;2023-03-31T13:06:07;6.30;;;2.13;;
7773;SDS011;3931;42.260;23.116;2023-03-31T13:08:53;7.07;;;2.30;;
7773;SDS011;3931;42.260;23.116;2023-03-31T13:11:20;15.80;;;2.27;;
7773;SDS011;3931;42.260;23.116;2023-03-31T13:13:52;4.20;;;2.40;;
7773;SDS011;3931;42.260;23.116;2023-03-31T13:16:22;6.43;;;1.97;;
7773;SDS011;3931;42.260;23.116;2023-03-31T13:18:52;9.23;;;2.10;;
7773;SDS011;3931;42.260;23.116;2023-03-31T13:21:18;7.27;;;2.27;;
7773;SDS011;3931;42.260;23.116;2023-03-31T13:23:44;5.00;;;1.93;;
7773;SDS011;3931;42.260;23.116;2023-03-31T13:34:13;30.73;;;3.20;;
7773;SDS011;3931;42.260;23.116;2023-03-31T13:39:27;12.13;;;2.20;;
7773;SDS011;3931;42.260;23.116;2023-03-31T13:41:55;19.90;;;3.07;;
7773;SDS011;3931;42.260;23.116;2023-03-31T13:52:52;5.93;;;2.23;;
7773;SDS011;3931;42.260;23.116;2023-03-31T13:55:33;5.00;;;1.93;;
7773;SDS011;3931;42.260;23.116;2023-03-31T13:58:13;11.13;;;3.83;;
7773;SDS011;3931;42.260;23.116;2023-03-31T14:00:45;9.23;;;3.07;;
7773;SDS011;3931;42.260;23.116;2023-03-31T14:03:16;21.03;;;3.50;;
7773;SDS011;3931;42.260;23.116;2023-03-31T14:05:46;7.40;;;2.67;;
7773;SDS011;3931;42.260;23.116;2023-03-31T14:08:17;24.20;;;3.03;;
7773;SDS011;3931;42.260;23.116;2023-03-31T14:10:44;10.30;;;2.40;;
7773;SDS011;3931;42.260;23.116;2023-03-31T14:13:11;8.97;;;2.00;;
7773;SDS011;3931;42.260;23.116;2023-03-31T14:15:37;20.03;;;3.00;;
7773;SDS011;3931;42.260;23.116;2023-03-31T14:18:04;14.47;;;3.47;;
7773;SDS011;3931;42.260;23.116;2023-03-31T14:20:33;176.63;;;10.40;;
7773;SDS011;3931;42.260;23.116;2023-03-31T14:23:03;7.53;;;2.13;;
7773;SDS011;3931;42.260;23.116;2023-03-31T14:25:36;14.80;;;3.57;;
7773;SDS011;3931;42.260;23.116;2023-03-31T14:28:09;17.83;;;3.90;;
7773;SDS011;3931;42.260;23.116;2023-03-31T14:30:42;34.23;;;4.13;;
7773;SDS011;3931;42.260;23.116;2023-03-31T14:33:16;52.13;;;4.70;;
7773;SDS011;3931;42.260;23.116;2023-03-31T14:35:48;7.73;;;1.67;;
7773;SDS011;3931;42.260;23.116;2023-03-31T14:38:18;37.47;;;3.37;;
7773;SDS011;3931;42.260;23.116;2023-03-31T14:40:46;5.13;;;2.20;;
7773;SDS011;3931;42.260;23.116;2023-03-31T14:43:16;50.93;;;4.50;;
7773;SDS011;3931;42.260;23.116;2023-03-31T14:45:43;90.47;;;5.93;;
7773;SDS011;3931;42.260;23.116;2023-03-31T14:48:10;10.63;;;2.57;;
7773;SDS011;3931;42.260;23.116;2023-03-31T14:50:37;14.03;;;3.00;;
7773;SDS011;3931;42.260;23.116;2023-03-31T14:53:11;36.00;;;3.20;;
7773;SDS011;3931;42.260;23.116;2023-03-31T14:55:38;7.97;;;3.80;;
7773;SDS011;3931;42.260;23.116;2023-03-31T14:58:05;12.07;;;4.40;;
7773;SDS011;3931;42.260;23.116;2023-03-31T15:00:33;6.57;;;2.60;;
7773;SDS011;3931;42.260;23.116;2023-03-31T15:03:00;18.23;;;6.07;;
7773;SDS011;3931;42.260;23.116;2023-03-31T15:05:28;6.70;;;2.43;;
7773;SDS011;3931;42.260;23.116;2023-03-31T15:07:55;7.33;;;2.60;;
7773;SDS011;3931;42.260;23.116;2023-03-31T15:10:21;14.53;;;3.33;;
7773;SDS011;3931;42.260;23.116;2023-03-31T15:12:47;9.87;;;3.67;;
7773;SDS011;3931;42.260;23.116;2023-03-31T15:15:15;62.80;;;5.80;;
7773;SDS011;3931;42.260;23.116;2023-03-31T15:17:42;20.03;;;4.57;;
7773;SDS011;3931;42.260;23.116;2023-03-31T15:22:53;12.83;;;4.60;;
7773;SDS011;3931;42.260;23.116;2023-03-31T15:25:20;27.30;;;3.93;;
7773;SDS011;3931;42.260;23.116;2023-03-31T15:27:46;5.83;;;3.30;;
7773;SDS011;3931;42.260;23.116;2023-03-31T15:30:14;22.23;;;4.00;;
7773;SDS011;3931;42.260;23.116;2023-03-31T15:32:42;16.73;;;3.80;;
7773;SDS011;3931;42.260;23.116;2023-03-31T15:35:10;12.67;;;3.97;;
7773;SDS011;3931;42.260;23.116;2023-03-31T15:37:41;7.63;;;4.27;;